createdAt,value
2022-11-26T00:02:29.342Z,6.28
2022-11-26T00:04:59.046Z,6.23
2022-11-26T00:07:30.601Z,6.27
2022-11-26T00:09:59.708Z,6.33
2022-11-26T00:12:35.291Z,6.41
2022-11-26T00:15:23.888Z,6.46
2022-11-26T00:17:53.268Z,6.47
2022-11-26T00:20:30.999Z,6.52
2022-11-26T00:23:02.408Z,6.55
2022-11-26T00:25:51.417Z,6.58
2022-11-26T00:28:38.403Z,6.57
2022-11-26T00:31:15.351Z,6.64
2022-11-26T00:33:42.596Z,6.76
2022-11-26T00:36:35.961Z,6.78
2022-11-26T00:39:24.487Z,6.81
2022-11-26T00:41:52.515Z,6.77
2022-11-26T00:44:24.180Z,6.82
2022-11-26T00:46:52.063Z,6.90
2022-11-26T00:49:19.323Z,6.88
2022-11-26T00:51:47.619Z,7.01
2022-11-26T00:54:18.492Z,7.01
2022-11-26T00:56:47.721Z,7.03
2022-11-26T00:59:21.095Z,6.93
2022-11-26T01:01:48.749Z,6.85
2022-11-26T01:04:15.762Z,6.97
2022-11-26T01:06:45.746Z,7.08
2022-11-26T01:09:20.478Z,7.08
2022-11-26T01:11:53.522Z,7.19
2022-11-26T01:14:24.721Z,7.13
2022-11-26T01:16:53.345Z,7.16
2022-11-26T01:19:20.537Z,7.16
2022-11-26T01:21:47.597Z,7.18
2022-11-26T01:24:14.568Z,7.18
2022-11-26T01:26:44.962Z,7.19
2022-11-26T01:29:19.969Z,7.19
2022-11-26T01:31:47.713Z,7.14
2022-11-26T01:34:15.405Z,7.17
2022-11-26T01:36:43.083Z,7.16
2022-11-26T01:39:17.347Z,7.19
2022-11-26T01:42:14.680Z,7.20
2022-11-26T01:44:41.798Z,7.21
2022-11-26T01:47:28.398Z,7.19
2022-11-26T01:50:32.178Z,7.16
2022-11-26T01:53:14.911Z,7.17
2022-11-26T01:55:59.287Z,7.21
2022-11-26T01:58:40.564Z,7.26
2022-11-26T02:01:08.328Z,7.21
2022-11-26T02:04:00.101Z,7.25
2022-11-26T02:06:33.767Z,7.31
2022-11-26T02:09:06.843Z,7.30
2022-11-26T02:11:34.367Z,7.33
2022-11-26T02:14:27.957Z,7.37
2022-11-26T02:18:01.065Z,7.32
2022-11-26T02:20:53.877Z,7.33
2022-11-26T02:24:20.792Z,7.34
2022-11-26T02:27:18.236Z,7.30
2022-11-26T02:30:10.668Z,7.28
2022-11-26T02:33:15.740Z,7.27
2022-11-26T02:36:22.224Z,7.31
2022-11-26T02:38:50.146Z,7.30
2022-11-26T02:41:17.146Z,7.35
2022-11-26T02:43:44.517Z,7.37
2022-11-26T02:46:18.345Z,7.38
2022-11-26T02:48:49.936Z,7.39
2022-11-26T02:51:29.475Z,7.32
2022-11-26T02:54:00.574Z,7.35
2022-11-26T02:56:29.238Z,7.40
2022-11-26T02:58:57.309Z,7.32
2022-11-26T03:01:47.532Z,7.34
2022-11-26T03:04:25.501Z,7.33
2022-11-26T03:06:56.320Z,7.37
2022-11-26T03:09:24.052Z,7.39
2022-11-26T03:11:51.197Z,7.39
2022-11-26T03:14:18.182Z,7.33
2022-11-26T03:16:45.191Z,7.37
2022-11-26T03:19:12.185Z,7.44
2022-11-26T03:21:39.122Z,7.43
2022-11-26T03:24:06.502Z,7.43
2022-11-26T03:26:33.441Z,7.45
2022-11-26T03:29:00.453Z,7.40
2022-11-26T03:31:27.466Z,7.41
2022-11-26T03:33:54.467Z,7.43
2022-11-26T03:36:21.690Z,7.49
2022-11-26T03:38:48.936Z,7.50
2022-11-26T03:41:15.916Z,7.52
2022-11-26T03:43:42.914Z,7.48
2022-11-26T03:46:09.928Z,7.55
2022-11-26T03:48:36.970Z,7.57
2022-11-26T03:51:04.057Z,7.54
2022-11-26T03:53:31.096Z,7.55
2022-11-26T03:55:58.115Z,7.55
2022-11-26T03:58:25.217Z,7.57
2022-11-26T04:00:52.287Z,7.57
2022-11-26T04:03:19.651Z,7.57
2022-11-26T04:05:46.849Z,7.60
2022-11-26T04:08:13.949Z,7.55
2022-11-26T04:10:40.917Z,7.59
2022-11-26T04:13:08.013Z,7.61
2022-11-26T04:15:35.587Z,7.63
2022-11-26T04:18:02.625Z,7.66
2022-11-26T04:20:29.673Z,7.66
2022-11-26T04:22:56.785Z,7.68
2022-11-26T04:25:23.864Z,7.59
2022-11-26T04:27:50.881Z,7.66
2022-11-26T04:30:18.080Z,7.69
2022-11-26T04:32:45.314Z,7.68
2022-11-26T04:35:12.311Z,7.68
2022-11-26T04:37:39.311Z,7.66
2022-11-26T04:40:07.497Z,7.67
2022-11-26T04:42:35.337Z,7.65
2022-11-26T04:45:02.652Z,7.67
2022-11-26T04:47:29.703Z,7.67
2022-11-26T04:49:56.653Z,7.74
2022-11-26T04:52:23.820Z,7.75
2022-11-26T04:54:50.813Z,7.77
2022-11-26T04:57:17.812Z,7.77
2022-11-26T04:59:44.899Z,7.77
2022-11-26T05:02:11.978Z,7.75
2022-11-26T05:04:39.122Z,7.81
2022-11-26T05:07:06.360Z,7.72
2022-11-26T05:09:33.457Z,7.76
2022-11-26T05:12:00.668Z,7.77
2022-11-26T05:14:27.645Z,7.74
2022-11-26T05:16:54.721Z,7.76
2022-11-26T05:19:21.767Z,7.79
2022-11-26T05:21:48.821Z,7.74
2022-11-26T05:24:15.819Z,7.76
2022-11-26T05:26:42.837Z,7.71
2022-11-26T05:29:09.855Z,7.86
2022-11-26T05:31:37.129Z,7.93
2022-11-26T05:34:04.337Z,7.91
2022-11-26T05:36:31.361Z,7.81
2022-11-26T05:38:58.337Z,7.74
2022-11-26T05:41:25.392Z,7.82
2022-11-26T05:43:52.446Z,7.89
2022-11-26T05:46:20.064Z,7.84
2022-11-26T05:48:47.168Z,7.86
2022-11-26T05:51:14.208Z,7.87
2022-11-26T05:53:41.326Z,7.89
2022-11-26T05:56:08.571Z,7.83
2022-11-26T05:58:35.715Z,7.86
2022-11-26T06:01:09.281Z,7.80
2022-11-26T06:03:37.658Z,7.83
2022-11-26T06:06:05.922Z,7.91
2022-11-26T06:08:33.416Z,7.93
2022-11-26T06:11:00.418Z,7.70
2022-11-26T06:13:27.609Z,7.86
2022-11-26T06:16:00.264Z,7.88
2022-11-26T06:18:27.237Z,7.85
2022-11-26T06:20:54.595Z,7.85
2022-11-26T06:23:21.585Z,7.94
2022-11-26T06:25:48.527Z,7.92
2022-11-26T06:28:15.849Z,7.98
2022-11-26T06:30:45.892Z,7.88
2022-11-26T06:33:13.524Z,7.93
2022-11-26T06:35:40.577Z,7.87
2022-11-26T06:38:08.973Z,7.94
2022-11-26T06:40:36.175Z,7.97
2022-11-26T06:43:03.362Z,7.95
2022-11-26T06:45:30.917Z,7.89
2022-11-26T06:47:57.936Z,7.94
2022-11-26T06:50:24.942Z,7.91
2022-11-26T06:53:27.492Z,7.98
2022-11-26T06:55:54.429Z,8.03
2022-11-26T06:58:25.076Z,7.94
2022-11-26T07:00:52.271Z,7.91
2022-11-26T07:03:23.789Z,7.94
2022-11-26T07:05:51.982Z,7.93
2022-11-26T07:08:19.042Z,7.91
2022-11-26T07:10:49.009Z,7.94
2022-11-26T07:13:16.425Z,8.05
2022-11-26T07:15:43.446Z,7.87
2022-11-26T07:18:10.507Z,7.92
2022-11-26T07:20:38.036Z,8.01
2022-11-26T07:23:05.234Z,8.00
2022-11-26T07:25:32.254Z,8.00
2022-11-26T07:27:59.293Z,8.01
2022-11-26T07:30:26.440Z,7.88
2022-11-26T07:32:53.558Z,7.84
2022-11-26T07:35:20.646Z,7.90
2022-11-26T07:37:47.841Z,7.97
2022-11-26T07:40:14.926Z,7.94
2022-11-26T07:42:41.920Z,8.01
2022-11-26T07:45:09.507Z,8.07
2022-11-26T07:47:36.880Z,8.11
2022-11-26T07:50:05.085Z,7.99
2022-11-26T07:52:32.133Z,8.03
2022-11-26T07:54:59.155Z,8.09
2022-11-26T07:57:26.234Z,8.20
2022-11-26T07:59:53.199Z,8.25
2022-11-26T08:02:20.279Z,8.18
2022-11-26T08:04:47.391Z,8.15
2022-11-26T08:07:21.885Z,8.16
2022-11-26T08:09:51.557Z,8.15
2022-11-26T08:12:18.570Z,8.15
2022-11-26T08:14:45.538Z,8.28
2022-11-26T08:17:12.668Z,8.19
2022-11-26T08:19:45.688Z,8.17
2022-11-26T08:22:12.678Z,8.19
2022-11-26T08:24:40.218Z,8.22
2022-11-26T08:27:07.595Z,8.24
2022-11-26T08:29:37.342Z,8.23
2022-11-26T08:32:05.083Z,8.18
2022-11-26T08:34:33.586Z,8.31
2022-11-26T08:37:00.584Z,8.33
2022-11-26T08:39:27.727Z,8.34
2022-11-26T08:41:55.531Z,8.40
2022-11-26T08:44:22.830Z,8.32
2022-11-26T08:46:50.524Z,8.28
2022-11-26T08:49:20.689Z,8.34
2022-11-26T08:51:48.012Z,8.39
2022-11-26T08:54:15.060Z,8.42
2022-11-26T08:56:42.288Z,8.48
2022-11-26T08:59:09.335Z,8.49
2022-11-26T09:01:36.623Z,8.54
2022-11-26T09:04:05.099Z,8.62
2022-11-26T09:06:38.370Z,8.62
2022-11-26T09:09:12.496Z,8.59
2022-11-26T09:11:57.611Z,8.58
2022-11-26T09:14:29.476Z,8.58
2022-11-26T09:16:58.291Z,8.62
2022-11-26T09:19:25.732Z,8.63
2022-11-26T09:21:52.886Z,8.62
2022-11-26T09:24:21.199Z,8.63
2022-11-26T09:26:48.559Z,8.66
2022-11-26T09:29:21.078Z,8.70
2022-11-26T09:34:37.794Z,8.80
2022-11-26T09:37:05.288Z,8.74
2022-11-26T09:39:32.505Z,8.78
2022-11-26T09:42:09.067Z,8.84
2022-11-26T09:45:26.405Z,8.74
2022-11-26T09:47:54.100Z,8.77
2022-11-26T09:50:32.328Z,8.75
2022-11-26T09:53:33.322Z,8.66
2022-11-26T09:56:02.205Z,8.67
2022-11-26T09:59:01.548Z,8.70
2022-11-26T10:01:32.454Z,8.71
2022-11-26T10:04:00.475Z,8.62
2022-11-26T10:07:01.116Z,8.67
2022-11-26T10:10:16.402Z,8.65
2022-11-26T10:13:33.014Z,8.63
2022-11-26T10:16:39.228Z,8.78
2022-11-26T10:19:46.000Z,8.79
2022-11-26T10:22:39.438Z,8.66
2022-11-26T10:25:22.591Z,8.68
2022-11-26T10:27:51.054Z,8.66
2022-11-26T10:30:30.722Z,8.69
2022-11-26T10:33:02.268Z,8.65
2022-11-26T10:35:30.290Z,8.43
2022-11-26T10:37:58.445Z,8.49
2022-11-26T10:40:33.042Z,8.63
2022-11-26T10:43:08.634Z,8.72
2022-11-26T10:45:55.839Z,8.71
2022-11-26T10:48:30.432Z,8.81
2022-11-26T10:51:28.550Z,8.85
2022-11-26T10:54:05.012Z,8.87
2022-11-26T10:56:56.179Z,8.79
2022-11-26T10:59:31.402Z,8.93
2022-11-26T11:02:26.470Z,9.00
2022-11-26T11:05:04.117Z,8.66
2022-11-26T11:07:41.229Z,8.79
2022-11-26T11:10:11.583Z,8.84
2022-11-26T11:12:49.361Z,8.69
2022-11-26T11:15:33.782Z,8.71
2022-11-26T11:18:15.509Z,8.69
2022-11-26T11:20:53.411Z,8.74
2022-11-26T11:23:46.133Z,8.86
2022-11-26T11:26:24.827Z,8.89
2022-11-26T11:28:56.353Z,9.01
2022-11-26T11:31:26.743Z,9.04
2022-11-26T11:34:32.732Z,8.95
2022-11-26T11:37:14.906Z,8.83
2022-11-26T11:39:43.121Z,8.78
2022-11-26T11:42:29.393Z,8.79
2022-11-26T11:44:58.419Z,8.63
2022-11-26T11:47:46.769Z,8.68
2022-11-26T11:51:18.673Z,8.80
2022-11-26T11:54:29.465Z,8.67
2022-11-26T11:57:54.488Z,8.85
2022-11-26T12:01:00.145Z,8.61
2022-11-26T12:03:49.748Z,8.79
2022-11-26T12:06:39.941Z,8.88
2022-11-26T12:09:38.985Z,8.75
2022-11-26T12:12:33.688Z,8.63
2022-11-26T12:15:31.444Z,8.65
2022-11-26T12:18:31.713Z,8.59
2022-11-26T12:21:15.636Z,8.58
2022-11-26T12:23:58.086Z,8.48
2022-11-26T12:26:45.227Z,8.62
2022-11-26T12:29:58.442Z,8.65
2022-11-26T12:33:15.442Z,8.69
2022-11-26T12:35:59.180Z,8.78
2022-11-26T12:38:45.086Z,8.72
2022-11-26T12:41:28.689Z,8.63
2022-11-26T12:44:28.178Z,8.71
2022-11-26T12:47:33.012Z,8.64
2022-11-26T12:50:05.663Z,8.63
2022-11-26T12:52:42.428Z,8.68
2022-11-26T12:55:41.807Z,8.54
2022-11-26T12:58:24.074Z,8.53
2022-11-26T13:00:54.548Z,8.48
2022-11-26T13:03:33.621Z,8.51
2022-11-26T13:06:45.517Z,8.49
2022-11-26T13:09:50.325Z,8.51
2022-11-26T13:12:42.440Z,8.56
2022-11-26T13:15:23.449Z,8.52
2022-11-26T13:17:51.666Z,8.53
2022-11-26T13:20:39.934Z,8.57
2022-11-26T13:23:53.332Z,8.50
2022-11-26T13:26:57.403Z,8.61
2022-11-26T13:29:30.199Z,8.57
2022-11-26T13:32:35.012Z,8.69
2022-11-26T13:35:57.112Z,8.61
2022-11-26T13:39:20.431Z,8.65
2022-11-26T13:42:44.300Z,8.55
2022-11-26T13:45:46.976Z,8.57
2022-11-26T13:48:38.259Z,8.51
2022-11-26T13:51:28.321Z,8.27
2022-11-26T13:54:19.556Z,8.46
2022-11-26T13:56:48.420Z,8.54
2022-11-26T13:59:28.411Z,8.71
2022-11-26T14:01:56.357Z,8.76
2022-11-26T14:04:23.306Z,8.81
2022-11-26T14:07:05.354Z,8.80
2022-11-26T14:09:44.607Z,8.77
2022-11-26T14:12:20.217Z,8.74
2022-11-26T14:14:49.467Z,8.82
2022-11-26T14:17:31.086Z,8.79
2022-11-26T14:20:02.160Z,8.72
2022-11-26T14:22:36.779Z,8.46
2022-11-26T14:25:12.034Z,8.54
2022-11-26T14:27:59.043Z,8.59
2022-11-26T14:30:28.161Z,8.58
2022-11-26T14:33:14.395Z,8.62
2022-11-26T14:35:51.550Z,8.60
2022-11-26T14:38:31.618Z,8.53
2022-11-26T14:41:00.981Z,8.41
2022-11-26T14:43:29.555Z,8.49
2022-11-26T14:46:10.158Z,8.50
2022-11-26T14:48:48.147Z,8.54
2022-11-26T14:51:26.444Z,8.47
2022-11-26T14:53:55.295Z,8.42
2022-11-26T14:56:25.137Z,8.45
2022-11-26T14:59:01.908Z,8.52
2022-11-26T15:01:29.658Z,8.50
2022-11-26T15:04:03.639Z,8.47
2022-11-26T15:06:43.169Z,8.48
2022-11-26T15:09:38.986Z,8.42
2022-11-26T15:12:15.491Z,8.40
2022-11-26T15:14:58.870Z,8.39
2022-11-26T15:17:30.510Z,8.41
2022-11-26T15:20:02.816Z,8.43
2022-11-26T15:22:42.444Z,8.39
2022-11-26T15:25:25.088Z,8.38
2022-11-26T15:28:00.875Z,8.33
2022-11-26T15:30:37.789Z,8.34
2022-11-26T15:33:14.220Z,8.33
2022-11-26T15:35:41.719Z,8.27
2022-11-26T15:38:20.334Z,8.35
2022-11-26T15:41:18.373Z,8.35
2022-11-26T15:43:51.716Z,8.36
2022-11-26T15:46:34.265Z,8.33
2022-11-26T15:49:17.846Z,8.34
2022-11-26T15:51:57.041Z,8.34
2022-11-26T15:54:49.588Z,8.30
2022-11-26T15:57:37.545Z,8.24
2022-11-26T16:00:22.515Z,8.22
2022-11-26T16:02:51.458Z,8.14
2022-11-26T16:05:35.779Z,8.15
2022-11-26T16:08:27.111Z,8.26
2022-11-26T16:11:04.557Z,8.24
2022-11-26T16:13:34.665Z,8.25
2022-11-26T16:16:09.470Z,8.27
2022-11-26T16:18:54.146Z,8.19
2022-11-26T16:21:30.702Z,8.28
2022-11-26T16:24:05.940Z,8.28
2022-11-26T16:26:57.630Z,8.28
2022-11-26T16:29:26.781Z,8.15
2022-11-26T16:31:53.896Z,8.22
2022-11-26T16:34:21.560Z,8.27
2022-11-26T16:36:48.676Z,8.31
2022-11-26T16:39:17.500Z,8.31
2022-11-26T16:41:44.495Z,8.25
2022-11-26T16:44:11.563Z,8.23
2022-11-26T16:46:40.964Z,8.22
2022-11-26T16:49:09.849Z,8.28
2022-11-26T16:51:36.886Z,8.30
2022-11-26T16:54:03.971Z,8.21
2022-11-26T16:56:38.485Z,8.24
2022-11-26T16:59:18.354Z,8.28
2022-11-26T17:01:45.653Z,8.27
2022-11-26T17:04:14.472Z,8.27
2022-11-26T17:06:43.307Z,8.27
2022-11-26T17:09:20.341Z,8.26
2022-11-26T17:11:47.593Z,8.23
2022-11-26T17:14:14.725Z,8.22
2022-11-26T17:16:42.697Z,8.19
2022-11-26T17:19:15.055Z,8.25
2022-11-26T17:21:42.199Z,8.24
2022-11-26T17:24:09.210Z,8.20
2022-11-26T17:26:36.285Z,8.18
2022-11-26T17:29:03.369Z,8.14
2022-11-26T17:31:30.631Z,8.20
2022-11-26T17:33:57.785Z,8.24
2022-11-26T17:36:24.902Z,8.22
2022-11-26T17:38:52.097Z,8.20
2022-11-26T17:41:19.403Z,8.20
2022-11-26T17:43:46.573Z,8.15
2022-11-26T17:46:21.597Z,8.07
2022-11-26T17:48:51.414Z,8.15
2022-11-26T17:51:21.414Z,8.13
2022-11-26T17:53:48.505Z,8.16
2022-11-26T17:56:23.031Z,8.10
2022-11-26T17:58:50.568Z,8.11
2022-11-26T18:01:18.393Z,8.14
2022-11-26T18:03:46.603Z,8.15
2022-11-26T18:07:10.632Z,8.16
2022-11-26T18:09:38.462Z,8.14
2022-11-26T18:12:08.509Z,8.18
2022-11-26T18:14:43.626Z,8.10
2022-11-26T18:17:11.673Z,8.16
2022-11-26T18:19:43.588Z,8.15
2022-11-26T18:22:17.783Z,8.16
2022-11-26T18:24:56.488Z,8.13
2022-11-26T18:27:28.602Z,8.16
2022-11-26T18:29:55.611Z,8.18
2022-11-26T18:32:22.819Z,8.17
2022-11-26T18:34:50.596Z,8.15
2022-11-26T18:37:18.272Z,8.16
2022-11-26T18:39:45.364Z,8.10
2022-11-26T18:45:00.932Z,8.11
2022-11-26T18:47:27.940Z,8.08
2022-11-26T18:49:54.930Z,8.09
2022-11-26T18:52:21.906Z,8.11
2022-11-26T18:54:48.929Z,8.11
2022-11-26T18:57:15.885Z,8.11
2022-11-26T18:59:43.133Z,8.12
2022-11-26T19:02:11.466Z,8.07
2022-11-26T19:04:39.244Z,8.11
2022-11-26T19:07:06.259Z,8.07
2022-11-26T19:09:33.260Z,8.06
2022-11-26T19:12:00.318Z,8.12
2022-11-26T19:14:27.404Z,8.10
2022-11-26T19:16:54.488Z,8.11
2022-11-26T19:19:22.559Z,8.13
2022-11-26T19:21:50.259Z,8.11
2022-11-26T19:24:17.289Z,8.06
2022-11-26T19:26:44.274Z,8.13
2022-11-26T19:29:13.128Z,8.09
2022-11-26T19:31:40.511Z,8.14
2022-11-26T19:34:13.946Z,8.12
2022-11-26T19:36:41.488Z,8.14
2022-11-26T19:39:08.934Z,8.13
2022-11-26T19:41:36.235Z,8.14
2022-11-26T19:44:05.293Z,8.14
2022-11-26T19:46:34.985Z,8.16
2022-11-26T19:49:02.135Z,8.11
2022-11-26T19:51:29.158Z,8.12
2022-11-26T19:53:57.043Z,8.17
2022-11-26T19:56:29.664Z,8.18
2022-11-26T19:59:01.980Z,8.14
2022-11-26T20:01:34.476Z,8.17
2022-11-26T20:04:11.595Z,8.15
2022-11-26T20:06:39.061Z,8.07
2022-11-26T20:09:09.236Z,8.01
2022-11-26T20:11:40.186Z,8.03
2022-11-26T20:14:11.400Z,8.04
2022-11-26T20:16:44.019Z,8.08
2022-11-26T20:19:12.552Z,8.07
2022-11-26T20:21:40.100Z,8.05
2022-11-26T20:24:14.857Z,8.09
2022-11-26T20:26:45.076Z,8.12
2022-11-26T20:29:16.937Z,8.11
2022-11-26T20:31:49.756Z,7.95
2022-11-26T20:34:22.238Z,8.03
2022-11-26T20:36:52.280Z,8.07
2022-11-26T20:39:23.301Z,8.11
2022-11-26T20:41:50.786Z,8.13
2022-11-26T20:44:17.848Z,8.14
2022-11-26T20:46:44.868Z,8.15
2022-11-26T20:49:12.076Z,8.14
2022-11-26T20:51:39.527Z,8.16
2022-11-26T20:54:06.635Z,8.17
2022-11-26T20:56:33.702Z,8.13
2022-11-26T20:59:02.524Z,8.15
2022-11-26T21:01:31.445Z,8.17
2022-11-26T21:03:58.791Z,8.17
2022-11-26T21:06:31.694Z,8.17
2022-11-26T21:09:05.433Z,8.16
2022-11-26T21:11:32.461Z,8.18
2022-11-26T21:14:01.474Z,8.17
2022-11-26T21:16:29.792Z,8.18
2022-11-26T21:18:58.157Z,8.17
2022-11-26T21:21:28.062Z,8.10
2022-11-26T21:23:56.507Z,7.93
2022-11-26T21:26:26.057Z,7.92
2022-11-26T21:28:57.256Z,8.04
2022-11-26T21:31:26.392Z,8.08
2022-11-26T21:34:07.400Z,8.14
2022-11-26T21:36:36.602Z,8.15
2022-11-26T21:39:04.623Z,8.15
2022-11-26T21:41:33.732Z,8.03
2022-11-26T21:44:03.633Z,8.08
2022-11-26T21:46:37.869Z,8.10
2022-11-26T21:49:06.410Z,8.10
2022-11-26T21:51:33.545Z,8.15
2022-11-26T21:54:00.610Z,8.17
2022-11-26T21:56:31.267Z,8.19
2022-11-26T21:59:00.759Z,8.19
2022-11-26T22:01:37.807Z,8.19
2022-11-26T22:04:14.761Z,8.19
2022-11-26T22:06:43.721Z,8.20
2022-11-26T22:09:12.221Z,8.17
2022-11-26T22:11:43.602Z,8.17
2022-11-26T22:14:16.752Z,8.20
2022-11-26T22:16:44.130Z,8.21
2022-11-26T22:19:11.171Z,8.19
2022-11-26T22:21:41.544Z,8.21
2022-11-26T22:24:15.261Z,8.21
2022-11-26T22:26:43.622Z,8.20
2022-11-26T22:29:17.308Z,8.18
2022-11-26T22:31:45.103Z,8.19
2022-11-26T22:34:16.030Z,8.18
2022-11-26T22:36:44.358Z,8.18
2022-11-26T22:39:16.508Z,8.17
2022-11-26T22:41:46.010Z,8.16
2022-11-26T22:44:15.555Z,7.99
2022-11-26T22:46:42.949Z,7.97
2022-11-26T22:49:16.247Z,7.96
2022-11-26T22:51:43.743Z,8.02
2022-11-26T22:54:14.256Z,7.98
2022-11-26T22:56:41.622Z,8.01
2022-11-26T22:59:12.934Z,8.00
2022-11-26T23:01:40.593Z,8.03
2022-11-26T23:04:10.170Z,8.03
2022-11-26T23:06:39.223Z,8.05
2022-11-26T23:09:09.244Z,8.05
2022-11-26T23:11:42.404Z,8.02
2022-11-26T23:14:11.987Z,7.98
2022-11-26T23:16:42.544Z,8.03
2022-11-26T23:19:12.700Z,8.05
2022-11-26T23:21:42.705Z,8.05
2022-11-26T23:24:10.688Z,8.06
2022-11-26T23:26:40.099Z,8.08
2022-11-26T23:29:08.846Z,8.05
2022-11-26T23:31:41.400Z,7.99
2022-11-26T23:34:09.642Z,7.98
2022-11-26T23:36:38.079Z,8.00
2022-11-26T23:39:10.068Z,8.03
2022-11-26T23:41:37.141Z,8.04
2022-11-26T23:44:04.642Z,8.05
2022-11-26T23:46:35.211Z,8.05
2022-11-26T23:49:02.353Z,8.08
2022-11-26T23:51:33.075Z,8.03
2022-11-26T23:54:00.589Z,8.02
2022-11-26T23:56:33.208Z,8.00
2022-11-26T23:59:03.803Z,7.90
